sensor_id;sensor_type;location;lat;lon;timestamp;P1;durP1;ratioP1;P2;durP2;ratioP2
74229;SDS011;62589;12.568;99.958;2023-01-30T00:00:35;26.73;;;14.20;;
74229;SDS011;62589;12.568;99.958;2023-01-30T00:03:01;27.10;;;14.35;;
74229;SDS011;62589;12.568;99.958;2023-01-30T00:05:28;26.05;;;15.05;;
74229;SDS011;62589;12.568;99.958;2023-01-30T00:07:54;23.17;;;14.82;;
74229;SDS011;62589;12.568;99.958;2023-01-30T00:10:20;24.20;;;14.63;;
74229;SDS011;62589;12.568;99.958;2023-01-30T00:12:47;23.63;;;14.63;;
74229;SDS011;62589;12.568;99.958;2023-01-30T00:15:13;23.27;;;14.27;;
74229;SDS011;62589;12.568;99.958;2023-01-30T00:17:39;26.10;;;13.90;;
74229;SDS011;62589;12.568;99.958;2023-01-30T00:20:06;26.80;;;14.45;;
74229;SDS011;62589;12.568;99.958;2023-01-30T00:22:32;29.13;;;15.20;;
74229;SDS011;62589;12.568;99.958;2023-01-30T00:24:59;26.25;;;14.65;;
74229;SDS011;62589;12.568;99.958;2023-01-30T00:27:25;26.10;;;14.90;;
74229;SDS011;62589;12.568;99.958;2023-01-30T00:29:51;25.25;;;15.13;;
74229;SDS011;62589;12.568;99.958;2023-01-30T00:32:18;23.30;;;14.20;;
74229;SDS011;62589;12.568;99.958;2023-01-30T00:34:44;26.58;;;15.10;;
74229;SDS011;62589;12.568;99.958;2023-01-30T00:37:10;24.80;;;13.80;;
74229;SDS011;62589;12.568;99.958;2023-01-30T00:39:37;19.63;;;13.80;;
74229;SDS011;62589;12.568;99.958;2023-01-30T00:42:04;26.70;;;14.65;;
74229;SDS011;62589;12.568;99.958;2023-01-30T00:44:42;25.02;;;15.13;;
74229;SDS011;62589;12.568;99.958;2023-01-30T00:47:21;25.65;;;15.18;;
74229;SDS011;62589;12.568;99.958;2023-01-30T00:49:47;28.45;;;15.35;;
74229;SDS011;62589;12.568;99.958;2023-01-30T00:52:14;33.25;;;19.02;;
74229;SDS011;62589;12.568;99.958;2023-01-30T00:54:44;27.30;;;15.77;;
74229;SDS011;62589;12.568;99.958;2023-01-30T00:57:11;27.90;;;15.18;;
74229;SDS011;62589;12.568;99.958;2023-01-30T00:59:38;28.20;;;14.48;;
74229;SDS011;62589;12.568;99.958;2023-01-30T01:02:06;24.27;;;14.95;;
74229;SDS011;62589;12.568;99.958;2023-01-30T01:04:33;24.23;;;14.25;;
74229;SDS011;62589;12.568;99.958;2023-01-30T01:07:10;26.98;;;14.90;;
74229;SDS011;62589;12.568;99.958;2023-01-30T01:09:41;22.67;;;14.18;;
74229;SDS011;62589;12.568;99.958;2023-01-30T01:12:08;29.38;;;14.82;;
74229;SDS011;62589;12.568;99.958;2023-01-30T01:14:35;23.10;;;14.40;;
74229;SDS011;62589;12.568;99.958;2023-01-30T01:17:02;25.50;;;13.82;;
74229;SDS011;62589;12.568;99.958;2023-01-30T01:19:29;24.88;;;13.95;;
74229;SDS011;62589;12.568;99.958;2023-01-30T01:21:56;28.63;;;13.90;;
74229;SDS011;62589;12.568;99.958;2023-01-30T01:24:23;23.15;;;14.02;;
74229;SDS011;62589;12.568;99.958;2023-01-30T01:26:49;24.05;;;13.77;;
74229;SDS011;62589;12.568;99.958;2023-01-30T01:29:16;23.60;;;13.38;;
74229;SDS011;62589;12.568;99.958;2023-01-30T01:31:44;24.17;;;13.93;;
74229;SDS011;62589;12.568;99.958;2023-01-30T01:34:11;27.95;;;14.20;;
74229;SDS011;62589;12.568;99.958;2023-01-30T01:36:39;25.23;;;13.52;;
74229;SDS011;62589;12.568;99.958;2023-01-30T01:39:06;23.92;;;12.88;;
74229;SDS011;62589;12.568;99.958;2023-01-30T01:41:33;24.17;;;13.52;;
74229;SDS011;62589;12.568;99.958;2023-01-30T01:44:12;23.70;;;13.73;;
74229;SDS011;62589;12.568;99.958;2023-01-30T01:49:24;26.90;;;13.55;;
74229;SDS011;62589;12.568;99.958;2023-01-30T01:52:01;22.92;;;13.20;;
74229;SDS011;62589;12.568;99.958;2023-01-30T01:54:38;30.33;;;14.32;;
74229;SDS011;62589;12.568;99.958;2023-01-30T01:57:39;20.25;;;13.20;;
74229;SDS011;62589;12.568;99.958;2023-01-30T02:00:21;27.08;;;13.00;;
74229;SDS011;62589;12.568;99.958;2023-01-30T02:02:51;22.92;;;13.30;;
74229;SDS011;62589;12.568;99.958;2023-01-30T02:05:23;24.65;;;13.52;;
74229;SDS011;62589;12.568;99.958;2023-01-30T02:08:04;26.15;;;12.80;;
74229;SDS011;62589;12.568;99.958;2023-01-30T02:13:44;27.15;;;13.95;;
74229;SDS011;62589;12.568;99.958;2023-01-30T02:16:13;25.48;;;13.50;;
74229;SDS011;62589;12.568;99.958;2023-01-30T02:18:45;23.55;;;13.45;;
74229;SDS011;62589;12.568;99.958;2023-01-30T02:24:12;25.85;;;14.18;;
74229;SDS011;62589;12.568;99.958;2023-01-30T02:29:54;22.48;;;13.10;;
74229;SDS011;62589;12.568;99.958;2023-01-30T02:38:39;25.52;;;13.25;;
74229;SDS011;62589;12.568;99.958;2023-01-30T02:41:20;24.42;;;13.02;;
74229;SDS011;62589;12.568;99.958;2023-01-30T02:44:05;27.17;;;14.48;;
74229;SDS011;62589;12.568;99.958;2023-01-30T02:47:03;22.60;;;12.98;;
74229;SDS011;62589;12.568;99.958;2023-01-30T02:49:47;27.48;;;14.68;;
74229;SDS011;62589;12.568;99.958;2023-01-30T02:52:27;27.17;;;13.07;;
74229;SDS011;62589;12.568;99.958;2023-01-30T02:54:55;23.13;;;13.18;;
74229;SDS011;62589;12.568;99.958;2023-01-30T02:57:22;27.52;;;13.82;;
74229;SDS011;62589;12.568;99.958;2023-01-30T02:59:52;26.88;;;13.00;;
74229;SDS011;62589;12.568;99.958;2023-01-30T03:05:33;26.17;;;13.48;;
74229;SDS011;62589;12.568;99.958;2023-01-30T03:11:12;27.67;;;13.57;;
74229;SDS011;62589;12.568;99.958;2023-01-30T03:13:59;29.42;;;13.70;;
74229;SDS011;62589;12.568;99.958;2023-01-30T03:16:36;25.20;;;13.82;;
74229;SDS011;62589;12.568;99.958;2023-01-30T03:19:04;26.48;;;13.48;;
74229;SDS011;62589;12.568;99.958;2023-01-30T03:21:43;23.58;;;13.57;;
74229;SDS011;62589;12.568;99.958;2023-01-30T03:24:10;24.05;;;13.05;;
74229;SDS011;62589;12.568;99.958;2023-01-30T03:29:27;23.05;;;13.27;;
74229;SDS011;62589;12.568;99.958;2023-01-30T03:31:53;25.52;;;12.35;;
74229;SDS011;62589;12.568;99.958;2023-01-30T03:34:19;26.10;;;12.93;;
74229;SDS011;62589;12.568;99.958;2023-01-30T03:36:46;28.40;;;13.77;;
74229;SDS011;62589;12.568;99.958;2023-01-30T03:39:12;22.30;;;13.10;;
74229;SDS011;62589;12.568;99.958;2023-01-30T03:41:39;25.23;;;13.23;;
74229;SDS011;62589;12.568;99.958;2023-01-30T03:44:08;22.75;;;13.18;;
74229;SDS011;62589;12.568;99.958;2023-01-30T03:46:35;27.23;;;13.30;;
74229;SDS011;62589;12.568;99.958;2023-01-30T03:49:01;29.38;;;14.18;;
74229;SDS011;62589;12.568;99.958;2023-01-30T03:51:27;22.83;;;13.05;;
74229;SDS011;62589;12.568;99.958;2023-01-30T03:53:53;23.58;;;12.60;;
74229;SDS011;62589;12.568;99.958;2023-01-30T03:56:20;25.98;;;13.07;;
74229;SDS011;62589;12.568;99.958;2023-01-30T03:58:46;24.88;;;13.85;;
74229;SDS011;62589;12.568;99.958;2023-01-30T04:01:12;24.25;;;13.55;;
74229;SDS011;62589;12.568;99.958;2023-01-30T04:03:39;23.52;;;13.40;;
74229;SDS011;62589;12.568;99.958;2023-01-30T04:06:05;26.13;;;13.82;;
74229;SDS011;62589;12.568;99.958;2023-01-30T04:08:32;26.42;;;13.77;;
74229;SDS011;62589;12.568;99.958;2023-01-30T04:10:58;31.33;;;14.07;;
74229;SDS011;62589;12.568;99.958;2023-01-30T04:13:25;24.55;;;12.60;;
74229;SDS011;62589;12.568;99.958;2023-01-30T04:15:51;26.92;;;13.52;;
74229;SDS011;62589;12.568;99.958;2023-01-30T04:18:20;23.38;;;14.10;;
74229;SDS011;62589;12.568;99.958;2023-01-30T04:20:47;21.25;;;13.13;;
74229;SDS011;62589;12.568;99.958;2023-01-30T04:23:13;27.52;;;13.60;;
74229;SDS011;62589;12.568;99.958;2023-01-30T04:25:39;23.23;;;12.93;;
74229;SDS011;62589;12.568;99.958;2023-01-30T04:28:06;21.60;;;13.15;;
74229;SDS011;62589;12.568;99.958;2023-01-30T04:30:32;21.83;;;12.73;;
74229;SDS011;62589;12.568;99.958;2023-01-30T04:32:58;22.75;;;13.35;;
74229;SDS011;62589;12.568;99.958;2023-01-30T04:35:25;24.95;;;13.38;;
74229;SDS011;62589;12.568;99.958;2023-01-30T04:37:51;24.17;;;12.73;;
74229;SDS011;62589;12.568;99.958;2023-01-30T04:40:17;22.88;;;12.45;;
74229;SDS011;62589;12.568;99.958;2023-01-30T04:42:44;20.90;;;12.07;;
74229;SDS011;62589;12.568;99.958;2023-01-30T04:45:10;19.10;;;11.73;;
74229;SDS011;62589;12.568;99.958;2023-01-30T04:47:36;19.48;;;12.02;;
74229;SDS011;62589;12.568;99.958;2023-01-30T04:50:03;18.90;;;11.75;;
74229;SDS011;62589;12.568;99.958;2023-01-30T04:52:29;22.02;;;12.68;;
74229;SDS011;62589;12.568;99.958;2023-01-30T04:54:56;24.55;;;12.70;;
74229;SDS011;62589;12.568;99.958;2023-01-30T04:57:22;17.60;;;11.77;;
74229;SDS011;62589;12.568;99.958;2023-01-30T04:59:48;20.30;;;11.30;;
74229;SDS011;62589;12.568;99.958;2023-01-30T05:02:14;26.88;;;12.02;;
74229;SDS011;62589;12.568;99.958;2023-01-30T05:04:41;29.38;;;16.25;;
74229;SDS011;62589;12.568;99.958;2023-01-30T05:07:07;31.23;;;18.58;;
74229;SDS011;62589;12.568;99.958;2023-01-30T05:09:34;27.58;;;15.55;;
74229;SDS011;62589;12.568;99.958;2023-01-30T05:12:00;21.95;;;13.35;;
74229;SDS011;62589;12.568;99.958;2023-01-30T05:14:27;22.15;;;11.43;;
74229;SDS011;62589;12.568;99.958;2023-01-30T05:16:53;23.50;;;11.98;;
74229;SDS011;62589;12.568;99.958;2023-01-30T05:19:19;19.05;;;11.55;;
74229;SDS011;62589;12.568;99.958;2023-01-30T05:21:46;19.35;;;11.32;;
74229;SDS011;62589;12.568;99.958;2023-01-30T05:24:12;18.92;;;11.77;;
74229;SDS011;62589;12.568;99.958;2023-01-30T05:26:38;20.85;;;12.70;;
74229;SDS011;62589;12.568;99.958;2023-01-30T05:29:05;17.48;;;11.70;;
74229;SDS011;62589;12.568;99.958;2023-01-30T05:31:31;20.27;;;12.90;;
74229;SDS011;62589;12.568;99.958;2023-01-30T05:33:59;19.45;;;12.65;;
74229;SDS011;62589;12.568;99.958;2023-01-30T05:36:25;18.98;;;11.90;;
74229;SDS011;62589;12.568;99.958;2023-01-30T05:38:52;20.05;;;12.32;;
74229;SDS011;62589;12.568;99.958;2023-01-30T05:41:18;18.33;;;11.68;;
74229;SDS011;62589;12.568;99.958;2023-01-30T05:43:47;18.10;;;11.85;;
74229;SDS011;62589;12.568;99.958;2023-01-30T05:46:15;19.13;;;12.40;;
74229;SDS011;62589;12.568;99.958;2023-01-30T05:48:41;18.60;;;11.65;;
74229;SDS011;62589;12.568;99.958;2023-01-30T05:51:18;16.73;;;11.75;;
74229;SDS011;62589;12.568;99.958;2023-01-30T05:53:47;19.17;;;11.85;;
74229;SDS011;62589;12.568;99.958;2023-01-30T05:56:13;23.40;;;12.52;;
74229;SDS011;62589;12.568;99.958;2023-01-30T05:58:40;22.45;;;12.18;;
74229;SDS011;62589;12.568;99.958;2023-01-30T06:01:09;23.73;;;12.75;;
74229;SDS011;62589;12.568;99.958;2023-01-30T06:04:02;20.98;;;13.90;;
74229;SDS011;62589;12.568;99.958;2023-01-30T06:06:31;22.23;;;14.32;;
74229;SDS011;62589;12.568;99.958;2023-01-30T06:08:58;21.00;;;12.93;;
74229;SDS011;62589;12.568;99.958;2023-01-30T06:11:24;17.92;;;11.60;;
74229;SDS011;62589;12.568;99.958;2023-01-30T06:13:50;18.88;;;11.32;;
74229;SDS011;62589;12.568;99.958;2023-01-30T06:16:17;17.65;;;12.00;;
74229;SDS011;62589;12.568;99.958;2023-01-30T06:18:44;23.83;;;12.63;;
74229;SDS011;62589;12.568;99.958;2023-01-30T06:21:14;21.65;;;12.40;;
74229;SDS011;62589;12.568;99.958;2023-01-30T06:23:41;19.27;;;12.75;;
74229;SDS011;62589;12.568;99.958;2023-01-30T06:26:08;21.10;;;12.60;;
74229;SDS011;62589;12.568;99.958;2023-01-30T06:28:35;21.17;;;12.85;;
74229;SDS011;62589;12.568;99.958;2023-01-30T06:31:01;24.58;;;13.65;;
74229;SDS011;62589;12.568;99.958;2023-01-30T06:33:30;22.75;;;14.00;;
74229;SDS011;62589;12.568;99.958;2023-01-30T06:35:56;20.20;;;13.05;;
74229;SDS011;62589;12.568;99.958;2023-01-30T06:38:22;21.85;;;12.65;;
74229;SDS011;62589;12.568;99.958;2023-01-30T06:40:49;19.50;;;11.45;;
74229;SDS011;62589;12.568;99.958;2023-01-30T06:43:15;20.10;;;12.18;;
74229;SDS011;62589;12.568;99.958;2023-01-30T06:45:42;21.38;;;11.52;;
74229;SDS011;62589;12.568;99.958;2023-01-30T06:48:09;14.90;;;11.82;;
74229;SDS011;62589;12.568;99.958;2023-01-30T06:50:35;20.55;;;11.95;;
74229;SDS011;62589;12.568;99.958;2023-01-30T06:53:02;18.67;;;11.50;;
74229;SDS011;62589;12.568;99.958;2023-01-30T06:55:31;20.77;;;12.13;;
74229;SDS011;62589;12.568;99.958;2023-01-30T06:58:03;17.77;;;11.05;;
74229;SDS011;62589;12.568;99.958;2023-01-30T07:00:33;17.38;;;10.98;;
74229;SDS011;62589;12.568;99.958;2023-01-30T07:03:00;19.00;;;11.00;;
74229;SDS011;62589;12.568;99.958;2023-01-30T07:05:26;16.55;;;10.82;;
74229;SDS011;62589;12.568;99.958;2023-01-30T07:07:56;19.05;;;10.52;;
74229;SDS011;62589;12.568;99.958;2023-01-30T07:10:22;17.25;;;11.18;;
74229;SDS011;62589;12.568;99.958;2023-01-30T07:12:50;19.23;;;11.88;;
74229;SDS011;62589;12.568;99.958;2023-01-30T07:15:17;17.90;;;11.05;;
74229;SDS011;62589;12.568;99.958;2023-01-30T07:17:43;20.52;;;11.70;;
74229;SDS011;62589;12.568;99.958;2023-01-30T07:20:10;15.60;;;10.98;;
74229;SDS011;62589;12.568;99.958;2023-01-30T07:22:36;19.95;;;11.95;;
74229;SDS011;62589;12.568;99.958;2023-01-30T07:25:03;17.27;;;11.73;;
74229;SDS011;62589;12.568;99.958;2023-01-30T07:27:30;19.73;;;11.75;;
74229;SDS011;62589;12.568;99.958;2023-01-30T07:29:56;18.98;;;11.45;;
74229;SDS011;62589;12.568;99.958;2023-01-30T07:32:23;18.98;;;12.05;;
74229;SDS011;62589;12.568;99.958;2023-01-30T07:34:49;19.95;;;11.50;;
74229;SDS011;62589;12.568;99.958;2023-01-30T07:37:16;19.60;;;12.07;;
74229;SDS011;62589;12.568;99.958;2023-01-30T07:39:42;20.15;;;11.45;;
74229;SDS011;62589;12.568;99.958;2023-01-30T07:42:08;18.45;;;11.88;;
74229;SDS011;62589;12.568;99.958;2023-01-30T07:44:34;18.23;;;11.77;;
74229;SDS011;62589;12.568;99.958;2023-01-30T07:47:01;17.88;;;11.68;;
74229;SDS011;62589;12.568;99.958;2023-01-30T07:49:28;19.25;;;11.93;;
74229;SDS011;62589;12.568;99.958;2023-01-30T07:51:54;17.55;;;11.73;;
74229;SDS011;62589;12.568;99.958;2023-01-30T07:54:21;18.02;;;11.95;;
74229;SDS011;62589;12.568;99.958;2023-01-30T07:56:47;19.92;;;11.82;;
74229;SDS011;62589;12.568;99.958;2023-01-30T07:59:13;25.08;;;12.93;;
74229;SDS011;62589;12.568;99.958;2023-01-30T08:01:40;20.23;;;12.25;;
74229;SDS011;62589;12.568;99.958;2023-01-30T08:04:06;21.70;;;12.18;;
74229;SDS011;62589;12.568;99.958;2023-01-30T08:06:32;16.77;;;11.77;;
74229;SDS011;62589;12.568;99.958;2023-01-30T08:09:03;19.83;;;12.45;;
74229;SDS011;62589;12.568;99.958;2023-01-30T08:11:31;21.10;;;12.65;;
74229;SDS011;62589;12.568;99.958;2023-01-30T08:13:57;20.13;;;12.82;;
74229;SDS011;62589;12.568;99.958;2023-01-30T08:16:23;19.98;;;12.70;;
74229;SDS011;62589;12.568;99.958;2023-01-30T08:18:50;19.98;;;12.05;;
74229;SDS011;62589;12.568;99.958;2023-01-30T08:21:16;17.45;;;12.32;;
74229;SDS011;62589;12.568;99.958;2023-01-30T08:23:42;21.42;;;12.50;;
74229;SDS011;62589;12.568;99.958;2023-01-30T08:26:09;17.10;;;12.32;;
74229;SDS011;62589;12.568;99.958;2023-01-30T08:28:35;20.58;;;12.52;;
74229;SDS011;62589;12.568;99.958;2023-01-30T08:31:01;19.48;;;12.63;;
74229;SDS011;62589;12.568;99.958;2023-01-30T08:33:28;21.58;;;12.98;;
74229;SDS011;62589;12.568;99.958;2023-01-30T08:35:54;20.13;;;11.98;;
74229;SDS011;62589;12.568;99.958;2023-01-30T08:38:21;23.38;;;12.43;;
74229;SDS011;62589;12.568;99.958;2023-01-30T08:40:47;19.23;;;12.63;;
74229;SDS011;62589;12.568;99.958;2023-01-30T08:43:14;18.45;;;11.73;;
74229;SDS011;62589;12.568;99.958;2023-01-30T08:45:40;21.90;;;12.98;;
74229;SDS011;62589;12.568;99.958;2023-01-30T08:48:06;24.10;;;12.45;;
74229;SDS011;62589;12.568;99.958;2023-01-30T08:50:33;19.30;;;12.18;;
74229;SDS011;62589;12.568;99.958;2023-01-30T08:53:03;25.55;;;13.15;;
74229;SDS011;62589;12.568;99.958;2023-01-30T08:55:32;18.00;;;12.27;;
74229;SDS011;62589;12.568;99.958;2023-01-30T08:57:58;21.15;;;12.82;;
74229;SDS011;62589;12.568;99.958;2023-01-30T09:00:25;16.52;;;12.60;;
74229;SDS011;62589;12.568;99.958;2023-01-30T09:02:54;21.67;;;13.15;;
74229;SDS011;62589;12.568;99.958;2023-01-30T09:05:21;23.80;;;13.70;;
74229;SDS011;62589;12.568;99.958;2023-01-30T09:07:48;20.75;;;12.27;;
74229;SDS011;62589;12.568;99.958;2023-01-30T09:10:15;16.30;;;12.40;;
74229;SDS011;62589;12.568;99.958;2023-01-30T09:12:42;20.42;;;12.52;;
74229;SDS011;62589;12.568;99.958;2023-01-30T09:15:09;23.77;;;12.82;;
74229;SDS011;62589;12.568;99.958;2023-01-30T09:17:35;18.98;;;12.75;;
74229;SDS011;62589;12.568;99.958;2023-01-30T09:20:04;17.50;;;11.55;;
74229;SDS011;62589;12.568;99.958;2023-01-30T09:22:32;19.35;;;12.43;;
74229;SDS011;62589;12.568;99.958;2023-01-30T09:24:58;21.38;;;13.07;;
74229;SDS011;62589;12.568;99.958;2023-01-30T09:27:24;21.67;;;12.88;;
74229;SDS011;62589;12.568;99.958;2023-01-30T09:29:51;21.42;;;13.57;;
74229;SDS011;62589;12.568;99.958;2023-01-30T09:32:17;22.42;;;12.98;;
74229;SDS011;62589;12.568;99.958;2023-01-30T09:34:44;21.92;;;12.90;;
74229;SDS011;62589;12.568;99.958;2023-01-30T09:37:10;15.90;;;12.10;;
74229;SDS011;62589;12.568;99.958;2023-01-30T09:39:36;24.10;;;13.13;;
74229;SDS011;62589;12.568;99.958;2023-01-30T09:48:02;21.05;;;13.30;;
74229;SDS011;62589;12.568;99.958;2023-01-30T09:50:46;19.25;;;12.45;;
74229;SDS011;62589;12.568;99.958;2023-01-30T09:56:42;19.30;;;12.20;;
74229;SDS011;62589;12.568;99.958;2023-01-30T09:59:11;19.35;;;12.93;;
74229;SDS011;62589;12.568;99.958;2023-01-30T10:01:55;21.73;;;13.50;;
74229;SDS011;62589;12.568;99.958;2023-01-30T10:04:44;22.92;;;12.88;;
74229;SDS011;62589;12.568;99.958;2023-01-30T10:07:17;17.83;;;12.68;;
74229;SDS011;62589;12.568;99.958;2023-01-30T10:10:05;19.10;;;11.90;;
74229;SDS011;62589;12.568;99.958;2023-01-30T10:12:52;19.65;;;12.00;;
74229;SDS011;62589;12.568;99.958;2023-01-30T10:24:18;22.88;;;13.32;;
74229;SDS011;62589;12.568;99.958;2023-01-30T10:27:00;20.10;;;12.77;;
74229;SDS011;62589;12.568;99.958;2023-01-30T10:29:32;24.02;;;13.57;;
74229;SDS011;62589;12.568;99.958;2023-01-30T10:32:10;19.60;;;12.32;;
74229;SDS011;62589;12.568;99.958;2023-01-30T10:34:46;20.67;;;12.95;;
74229;SDS011;62589;12.568;99.958;2023-01-30T10:37:28;19.08;;;11.88;;
74229;SDS011;62589;12.568;99.958;2023-01-30T10:48:50;22.33;;;12.40;;
74229;SDS011;62589;12.568;99.958;2023-01-30T10:51:43;19.92;;;12.18;;
74229;SDS011;62589;12.568;99.958;2023-01-30T10:54:34;19.35;;;12.18;;
74229;SDS011;62589;12.568;99.958;2023-01-30T10:57:23;20.48;;;12.80;;
74229;SDS011;62589;12.568;99.958;2023-01-30T11:00:14;17.05;;;12.02;;
74229;SDS011;62589;12.568;99.958;2023-01-30T11:05:50;21.02;;;12.60;;
74229;SDS011;62589;12.568;99.958;2023-01-30T11:08:26;27.08;;;13.00;;
74229;SDS011;62589;12.568;99.958;2023-01-30T11:10:56;17.15;;;12.68;;
74229;SDS011;62589;12.568;99.958;2023-01-30T11:13:27;19.05;;;12.63;;
74229;SDS011;62589;12.568;99.958;2023-01-30T11:16:01;22.63;;;13.43;;
74229;SDS011;62589;12.568;99.958;2023-01-30T11:18:43;20.02;;;13.00;;
74229;SDS011;62589;12.568;99.958;2023-01-30T11:21:27;18.75;;;12.90;;
74229;SDS011;62589;12.568;99.958;2023-01-30T11:23:55;19.63;;;11.40;;
74229;SDS011;62589;12.568;99.958;2023-01-30T11:26:31;20.77;;;12.52;;
74229;SDS011;62589;12.568;99.958;2023-01-30T11:28:59;23.45;;;12.02;;
74229;SDS011;62589;12.568;99.958;2023-01-30T11:31:51;18.20;;;12.43;;
74229;SDS011;62589;12.568;99.958;2023-01-30T11:34:19;18.60;;;11.77;;
74229;SDS011;62589;12.568;99.958;2023-01-30T11:36:47;19.40;;;12.65;;
74229;SDS011;62589;12.568;99.958;2023-01-30T11:39:18;25.48;;;12.98;;
74229;SDS011;62589;12.568;99.958;2023-01-30T11:41:58;24.67;;;12.98;;
74229;SDS011;62589;12.568;99.958;2023-01-30T11:44:29;23.80;;;13.75;;
74229;SDS011;62589;12.568;99.958;2023-01-30T11:46:59;24.17;;;13.88;;
74229;SDS011;62589;12.568;99.958;2023-01-30T11:49:32;18.83;;;13.10;;
74229;SDS011;62589;12.568;99.958;2023-01-30T11:52:04;17.50;;;12.57;;
74229;SDS011;62589;12.568;99.958;2023-01-30T11:54:33;20.17;;;12.80;;
74229;SDS011;62589;12.568;99.958;2023-01-30T11:57:09;26.85;;;13.20;;
74229;SDS011;62589;12.568;99.958;2023-01-30T12:05:04;22.13;;;14.07;;
74229;SDS011;62589;12.568;99.958;2023-01-30T12:07:41;22.98;;;14.25;;
74229;SDS011;62589;12.568;99.958;2023-01-30T12:10:27;21.30;;;14.13;;
74229;SDS011;62589;12.568;99.958;2023-01-30T12:12:57;25.15;;;14.68;;
74229;SDS011;62589;12.568;99.958;2023-01-30T12:15:32;26.17;;;14.52;;
74229;SDS011;62589;12.568;99.958;2023-01-30T12:18:04;27.00;;;15.25;;
74229;SDS011;62589;12.568;99.958;2023-01-30T12:20:55;24.02;;;15.20;;
74229;SDS011;62589;12.568;99.958;2023-01-30T12:23:37;25.02;;;15.05;;
74229;SDS011;62589;12.568;99.958;2023-01-30T12:26:19;26.75;;;15.25;;
74229;SDS011;62589;12.568;99.958;2023-01-30T12:34:38;26.13;;;16.80;;
74229;SDS011;62589;12.568;99.958;2023-01-30T12:43:14;31.45;;;18.80;;
74229;SDS011;62589;12.568;99.958;2023-01-30T12:49:15;28.30;;;17.02;;
74229;SDS011;62589;12.568;99.958;2023-01-30T12:54:53;27.98;;;17.15;;
74229;SDS011;62589;12.568;99.958;2023-01-30T12:57:39;33.25;;;17.88;;
74229;SDS011;62589;12.568;99.958;2023-01-30T13:00:32;26.23;;;16.15;;
74229;SDS011;62589;12.568;99.958;2023-01-30T13:06:01;29.23;;;17.10;;
74229;SDS011;62589;12.568;99.958;2023-01-30T13:26:31;24.98;;;15.75;;
74229;SDS011;62589;12.568;99.958;2023-01-30T13:29:02;28.63;;;16.70;;
74229;SDS011;62589;12.568;99.958;2023-01-30T13:31:46;26.70;;;16.55;;
74229;SDS011;62589;12.568;99.958;2023-01-30T13:34:29;26.75;;;16.70;;
74229;SDS011;62589;12.568;99.958;2023-01-30T13:37:12;30.10;;;17.02;;
74229;SDS011;62589;12.568;99.958;2023-01-30T13:39:51;31.25;;;17.05;;
74229;SDS011;62589;12.568;99.958;2023-01-30T13:45:22;30.60;;;16.30;;
74229;SDS011;62589;12.568;99.958;2023-01-30T13:53:50;29.77;;;17.27;;
74229;SDS011;62589;12.568;99.958;2023-01-30T14:03:13;30.55;;;18.23;;
74229;SDS011;62589;12.568;99.958;2023-01-30T14:08:49;32.28;;;18.15;;
74229;SDS011;62589;12.568;99.958;2023-01-30T14:11:33;31.70;;;19.15;;
74229;SDS011;62589;12.568;99.958;2023-01-30T14:14:05;28.48;;;18.60;;
74229;SDS011;62589;12.568;99.958;2023-01-30T14:16:51;29.38;;;18.40;;
74229;SDS011;62589;12.568;99.958;2023-01-30T14:19:29;37.22;;;19.83;;
74229;SDS011;62589;12.568;99.958;2023-01-30T14:22:02;36.53;;;20.85;;
74229;SDS011;62589;12.568;99.958;2023-01-30T14:24:41;30.38;;;18.75;;
74229;SDS011;62589;12.568;99.958;2023-01-30T14:29:56;34.05;;;21.48;;
74229;SDS011;62589;12.568;99.958;2023-01-30T14:35:19;47.65;;;22.17;;
74229;SDS011;62589;12.568;99.958;2023-01-30T14:38:02;38.22;;;21.60;;
74229;SDS011;62589;12.568;99.958;2023-01-30T14:40:45;33.35;;;20.25;;
74229;SDS011;62589;12.568;99.958;2023-01-30T14:43:46;36.05;;;21.08;;
74229;SDS011;62589;12.568;99.958;2023-01-30T14:51:55;32.85;;;21.08;;
74229;SDS011;62589;12.568;99.958;2023-01-30T14:54:26;38.25;;;21.27;;
74229;SDS011;62589;12.568;99.958;2023-01-30T14:59:53;39.65;;;21.92;;
74229;SDS011;62589;12.568;99.958;2023-01-30T15:02:27;39.15;;;21.23;;
74229;SDS011;62589;12.568;99.958;2023-01-30T15:07:48;33.67;;;21.35;;
74229;SDS011;62589;12.568;99.958;2023-01-30T15:22:39;30.85;;;20.77;;
74229;SDS011;62589;12.568;99.958;2023-01-30T15:31:17;34.17;;;21.08;;
74229;SDS011;62589;12.568;99.958;2023-01-30T15:33:47;33.33;;;20.65;;
74229;SDS011;62589;12.568;99.958;2023-01-30T15:39:03;33.33;;;22.05;;
74229;SDS011;62589;12.568;99.958;2023-01-30T15:41:40;32.55;;;20.17;;
74229;SDS011;62589;12.568;99.958;2023-01-30T15:50:06;34.80;;;21.13;;
74229;SDS011;62589;12.568;99.958;2023-01-30T15:52:38;36.30;;;19.85;;
74229;SDS011;62589;12.568;99.958;2023-01-30T15:55:22;30.08;;;20.45;;
74229;SDS011;62589;12.568;99.958;2023-01-30T15:57:55;30.45;;;20.10;;
74229;SDS011;62589;12.568;99.958;2023-01-30T16:00:27;33.30;;;20.45;;
74229;SDS011;62589;12.568;99.958;2023-01-30T16:02:56;41.53;;;20.83;;
74229;SDS011;62589;12.568;99.958;2023-01-30T16:05:25;33.33;;;21.15;;
74229;SDS011;62589;12.568;99.958;2023-01-30T16:07:53;36.75;;;22.33;;
74229;SDS011;62589;12.568;99.958;2023-01-30T16:10:22;31.65;;;21.25;;
74229;SDS011;62589;12.568;99.958;2023-01-30T16:12:56;33.75;;;20.95;;
74229;SDS011;62589;12.568;99.958;2023-01-30T16:15:28;36.15;;;21.77;;
74229;SDS011;62589;12.568;99.958;2023-01-30T16:18:01;37.03;;;23.20;;
74229;SDS011;62589;12.568;99.958;2023-01-30T16:20:31;33.50;;;23.08;;
74229;SDS011;62589;12.568;99.958;2023-01-30T16:25:49;40.50;;;24.13;;
74229;SDS011;62589;12.568;99.958;2023-01-30T16:28:20;36.28;;;24.80;;
74229;SDS011;62589;12.568;99.958;2023-01-30T16:30:55;40.15;;;25.17;;
74229;SDS011;62589;12.568;99.958;2023-01-30T16:33:24;38.10;;;24.60;;
74229;SDS011;62589;12.568;99.958;2023-01-30T16:35:50;41.63;;;25.73;;
74229;SDS011;62589;12.568;99.958;2023-01-30T16:41:03;40.22;;;25.48;;
74229;SDS011;62589;12.568;99.958;2023-01-30T16:43:31;33.20;;;22.73;;
74229;SDS011;62589;12.568;99.958;2023-01-30T16:49:01;39.47;;;24.33;;
74229;SDS011;62589;12.568;99.958;2023-01-30T16:51:29;37.22;;;23.90;;
74229;SDS011;62589;12.568;99.958;2023-01-30T16:53:57;36.90;;;24.17;;
74229;SDS011;62589;12.568;99.958;2023-01-30T16:56:27;37.65;;;24.35;;
74229;SDS011;62589;12.568;99.958;2023-01-30T16:58:57;36.47;;;22.75;;
74229;SDS011;62589;12.568;99.958;2023-01-30T17:01:40;35.30;;;22.60;;
74229;SDS011;62589;12.568;99.958;2023-01-30T17:04:07;37.85;;;23.05;;
74229;SDS011;62589;12.568;99.958;2023-01-30T17:06:43;39.65;;;23.52;;
74229;SDS011;62589;12.568;99.958;2023-01-30T17:15:26;33.90;;;21.33;;
74229;SDS011;62589;12.568;99.958;2023-01-30T17:17:55;34.88;;;22.42;;
74229;SDS011;62589;12.568;99.958;2023-01-30T17:20:22;31.10;;;21.33;;
74229;SDS011;62589;12.568;99.958;2023-01-30T17:22:49;33.08;;;21.73;;
74229;SDS011;62589;12.568;99.958;2023-01-30T17:25:26;35.85;;;21.95;;
74229;SDS011;62589;12.568;99.958;2023-01-30T17:28:06;34.63;;;20.73;;